Weather reports worldwide

Advertisment
Cerezo De Arriba, Spain (8143): temperature & dewpoint: 11.06.2019 20:00:00 - 17.06.2019 20:00:00 (CEST)Cerezo De Arriba, Spain (8143): wind speed & gusts: 11.06.2019 20:00:00 - 17.06.2019 20:00:00 (CEST)Cerezo De Arriba, Spain (8143): wind direction: 11.06.2019 20:00:00 - 17.06.2019 20:00:00 (CEST)Cerezo De Arriba, Spain (8143): visibility: 11.06.2019 20:00:00 - 17.06.2019 20:00:00 (CEST)Cerezo De Arriba, Spain (8143): sunshine duration: 11.06.2019 20:00:00 - 17.06.2019 20:00:00 (CEST)Cerezo De Arriba, Spain (8143): precipitation: 11.06.2019 20:00:00 - 17.06.2019 20:00:00 (CEST)
Date & Time tt [°C] td [°C] ff [km/h] ff [kn] fx [km/h] fx [kn] dd vv [km] sd [min] rr [mm]
17.06.2019 20:00:00 - - - - - - - - - -
17.06.2019 19:00:00 20,5 -3,3 14 7 48 26 WNW 20 60 0,0
17.06.2019 18:00:00 21,3 -3,3 13 7 46 25 NNW 20 60 0,0
17.06.2019 17:00:00 20,4 -3,3 24 13 51 28 W 20 60 0,0
17.06.2019 16:00:00 20,5 -2,0 20 11 44 24 W 20 60 0,0
17.06.2019 15:00:00 20,1 -2,2 16 9 48 26 WSW 20 60 0,0
17.06.2019 14:00:00 19,6 -2,2 12 6 50 27 WNW 20 60 -
17.06.2019 13:00:00 19,2 -2,5 19 10 47 25 SSW 20 60 0,0
17.06.2019 12:00:00 19,0 -1,0 11 6 41 22 WNW 16 60 0,0
17.06.2019 11:00:00 19,1 -1,4 9 5 23 12 SW 20 60 0,0
17.06.2019 10:00:00 17,9 -2,0 7 4 22 12 SE 20 60 0,0
17.06.2019 09:00:00 15,9 -3,6 15 8 26 14 SSE 20 60 0,0
17.06.2019 08:00:00 15,4 -2,2 8 4 21 12 SSE 20 30 -
17.06.2019 07:00:00 11,4 -2,7 18 10 24 13 S 20 0 0,0
17.06.2019 06:00:00 10,8 -2,0 14 8 22 12 SSW 20 0 0,0
17.06.2019 05:00:00 11,4 -3,3 9 5 19 10 SSW 20 0 0,0
17.06.2019 04:00:00 11,1 -4,2 10 6 19 11 SSW 20 0 0,0
17.06.2019 03:00:00 12,9 -3,9 13 7 31 17 S 20 0 0,0
17.06.2019 02:00:00 13,4 -3,3 11 6 35 19 SSE 20 0 -
17.06.2019 01:00:00 14,0 -5,4 18 10 40 22 SSE 20 0 0,0
17.06.2019 00:00:00 14,3 -3,9 22 12 31 17 S 20 0 0,0
16.06.2019 23:00:00 14,7 -4,8 23 13 32 17 S 20 0 0,0
16.06.2019 22:00:00 14,8 -5,1 22 12 36 20 S 20 6 0,0
16.06.2019 21:00:00 16,2 -5,1 22 12 33 18 S 20 33 0,0
16.06.2019 20:00:00 17,7 -3,9 24 13 32 18 SSW 20 55 -
16.06.2019 19:00:00 18,6 -2,5 13 7 29 16 SW 20 43 0,0
16.06.2019 18:00:00 20,4 -2,0 16 8 29 16 SSW 17 60 0,0
16.06.2019 17:00:00 19,9 -3,0 13 7 44 24 SW 20 60 0,0
16.06.2019 16:00:00 20,4 -1,4 12 7 39 21 WNW 20 60 0,0
16.06.2019 15:00:00 18,3 -1,0 14 8 50 27 SSW 20 60 0,0
16.06.2019 14:00:00 17,5 -1,2 20 11 39 21 SW 20 60 -
16.06.2019 13:00:00 17,0 -1,2 22 12 48 26 SSW 20 60 0,0
16.06.2019 12:00:00 16,1 -1,0 18 10 48 26 SW 20 60 0,0
16.06.2019 11:00:00 15,6 -1,4 17 9 44 24 SSW 20 60 0,0
16.06.2019 10:00:00 14,3 -1,7 18 10 45 24 S 20 60 0,0
16.06.2019 09:00:00 14,0 -2,0 16 8 43 23 S 20 60 0,0
16.06.2019 08:00:00 12,0 -3,9 26 14 44 24 S 20 31 -
16.06.2019 07:00:00 10,3 -2,7 34 18 46 25 SSE 20 0 0,0
16.06.2019 06:00:00 10,4 -2,2 25 13 48 26 SSE 20 0 0,0
16.06.2019 05:00:00 10,4 -2,2 20 11 39 21 SSE 20 0 0,0
16.06.2019 04:00:00 9,6 -1,7 10 5 28 15 SSE 20 0 0,0
16.06.2019 03:00:00 10,1 -1,7 6 3 29 16 S 20 0 0,0
16.06.2019 02:00:00 9,2 -1,2 3 2 20 11 ESE 20 0 -
16.06.2019 01:00:00 9,5 -1,2 8 4 25 13 SE 20 0 0,0
16.06.2019 00:00:00 8,4 -1,0 12 6 17 9 SE 20 0 0,0
15.06.2019 23:00:00 9,2 -1,0 3 1 8 4 SSE 20 0 0,0
15.06.2019 22:00:00 10,5 -1,4 2 1 9 5 S 20 19 0,0
15.06.2019 21:00:00 14,5 -2,5 7 4 17 9 N 20 60 0,0
15.06.2019 20:00:00 15,1 -1,0 9 5 24 13 NNW 20 60 -
15.06.2019 19:00:00 15,3 -0,5 11 6 28 15 N 20 60 0,0
15.06.2019 18:00:00 16,2 1,5 10 5 34 19 N 20 60 0,0
15.06.2019 17:00:00 15,6 1,7 11 6 29 16 NW 20 60 0,0
15.06.2019 16:00:00 15,8 1,9 9 5 29 16 ENE 20 60 0,0
15.06.2019 15:00:00 14,7 2,5 8 4 33 18 NW 20 60 0,0
15.06.2019 14:00:00 12,8 2,7 12 6 28 15 N 20 59 -
15.06.2019 13:00:00 10,9 3,0 9 5 25 13 NNE 20 59 0,0
15.06.2019 12:00:00 8,9 3,0 8 4 18 10 N 20 59 0,0
15.06.2019 11:00:00 7,8 1,3 9 5 17 9 WNW 20 60 0,0
15.06.2019 10:00:00 9,1 1,5 7 4 16 8 WNW 20 60 0,0
15.06.2019 09:00:00 7,5 -0,5 5 3 14 8 NW 20 54 0,0
15.06.2019 08:00:00 7,0 1,7 5 3 21 11 W 19 29 -
15.06.2019 07:00:00 2,8 1,7 7 4 32 17 SSE 16 0 0,0
15.06.2019 06:00:00 3,0 1,7 9 5 23 12 NW 17 0 0,0
15.06.2019 05:00:00 3,6 1,5 6 3 25 13 E 20 0 0,0
15.06.2019 04:00:00 3,8 1,5 10 6 28 15 ESE 20 0 0,0
15.06.2019 03:00:00 4,1 0,0 6 3 30 16 E 20 0 0,0
15.06.2019 02:00:00 5,2 -0,7 7 4 27 15 S 20 0 -
15.06.2019 01:00:00 6,6 -0,7 10 5 36 19 ESE 20 0 0,0
15.06.2019 00:00:00 7,5 -0,7 10 6 29 16 WNW 20 0 0,0
14.06.2019 23:00:00 8,2 -0,7 6 3 26 14 S 20 0 0,0
14.06.2019 22:00:00 9,4 -1,0 9 5 30 16 N 20 10 0,0
14.06.2019 21:00:00 13,9 -2,2 9 5 33 18 E 20 58 0,0
14.06.2019 20:00:00 13,3 -2,7 15 8 41 22 W 20 10 -
14.06.2019 19:00:00 14,3 -3,0 16 8 41 22 W 20 45 0,0
14.06.2019 18:00:00 17,2 -3,0 15 8 46 25 SW 20 59 0,0
14.06.2019 17:00:00 15,9 -3,6 18 10 53 28 SW 20 60 0,0
14.06.2019 16:00:00 15,7 -2,7 24 13 51 28 SW 20 60 0,0
14.06.2019 15:00:00 15,6 -4,5 19 10 54 29 WSW 20 60 0,0
14.06.2019 14:00:00 15,6 -2,5 14 7 49 27 SW 20 60 -
14.06.2019 13:00:00 14,4 -5,4 17 9 54 29 W 20 60 0,0
14.06.2019 12:00:00 13,8 0,0 24 13 63 34 WSW 20 60 0,0
14.06.2019 11:00:00 12,7 -1,0 28 15 65 35 S 20 60 0,0
14.06.2019 10:00:00 12,5 -2,5 22 12 58 31 SSW 20 60 0,0
14.06.2019 09:00:00 12,8 -4,5 19 10 41 22 WSW 20 60 0,0
14.06.2019 08:00:00 12,3 -3,6 18 10 47 25 SW 20 11 -
14.06.2019 07:00:00 10,4 -2,2 20 11 46 25 S 20 0 0,0
14.06.2019 06:00:00 10,4 -4,8 28 15 42 23 S 20 0 0,0
14.06.2019 05:00:00 10,4 -4,8 10 5 31 17 WNW 20 0 0,0
14.06.2019 04:00:00 10,2 -7,1 8 4 29 16 ESE 20 0 0,0
14.06.2019 03:00:00 11,6 -7,5 11 6 38 21 WSW 20 0 0,0
14.06.2019 02:00:00 8,9 -6,0 5 3 23 12 SW 20 0 -
14.06.2019 01:00:00 10,1 -7,5 9 5 24 13 S 20 0 0,0
14.06.2019 00:00:00 10,8 -6,4 13 7 28 15 S 20 0 0,0
13.06.2019 23:00:00 11,0 -4,8 9 5 31 17 SE 20 0 0,0
13.06.2019 22:00:00 12,3 -4,5 12 7 24 13 S 20 0 0,0
13.06.2019 21:00:00 14,2 -3,6 9 5 28 15 WSW 20 16 0,0
13.06.2019 20:00:00 15,5 -3,9 11 6 51 28 W 20 54 -
13.06.2019 19:00:00 17,7 -2,0 6 4 55 30 SSW 20 60 0,0
13.06.2019 18:00:00 17,5 -3,3 20 11 59 32 WSW 20 60 0,0
13.06.2019 17:00:00 17,2 0,0 19 10 49 26 SW 20 60 0,0
13.06.2019 16:00:00 16,4 1,3 22 12 66 35 WSW 20 60 0,0
13.06.2019 15:00:00 15,7 2,1 23 12 71 38 W 20 60 0,0
13.06.2019 14:00:00 14,5 1,7 23 12 71 38 WNW 14 59 -
13.06.2019 13:00:00 13,6 2,9 13 7 69 38 WSW 20 60 0,0
13.06.2019 12:00:00 12,3 4,3 14 8 55 30 ESE 20 59 0,0
13.06.2019 11:00:00 10,9 1,9 16 9 58 31 ESE 20 60 0,0
13.06.2019 10:00:00 9,6 3,0 22 12 53 28 SSE 20 59 0,0
13.06.2019 09:00:00 8,0 3,6 23 12 57 31 S 18 42 0,0
13.06.2019 08:00:00 6,7 3,4 25 13 58 31 S 19 11 -
13.06.2019 07:00:00 6,2 3,6 18 10 51 27 SSW 20 0 0,0
13.06.2019 06:00:00 6,8 3,9 23 12 59 32 SSW 20 0 0,0
13.06.2019 05:00:00 7,1 3,4 18 10 54 29 SSW 20 0 0,0
13.06.2019 04:00:00 7,2 2,9 16 9 56 30 SSW 20 0 0,0
13.06.2019 03:00:00 8,2 -6,0 13 7 42 23 S 20 0 0,0
13.06.2019 02:00:00 9,6 -6,7 15 8 44 24 W 20 0 -
13.06.2019 01:00:00 9,2 -7,1 13 7 30 16 SW 20 0 0,0
13.06.2019 00:00:00 9,4 -8,2 13 7 30 16 S 20 0 0,0
12.06.2019 23:00:00 9,9 -8,2 8 5 24 13 SW 20 0 0,0
12.06.2019 22:00:00 10,0 -7,1 10 6 29 16 WSW 20 0 0,0
12.06.2019 21:00:00 11,9 -5,1 9 5 34 19 SW 20 51 0,0
12.06.2019 20:00:00 14,1 -4,8 8 5 39 21 NW 20 48 -
12.06.2019 19:00:00 12,6 -4,2 14 8 44 24 WSW 20 37 0,0
12.06.2019 18:00:00 13,1 -2,5 14 7 41 22 SE 20 31 0,0
12.06.2019 17:00:00 13,7 -1,2 13 7 37 20 W 20 42 0,0
12.06.2019 16:00:00 12,0 -1,4 13 7 32 18 WSW 20 41 0,0
12.06.2019 15:00:00 12,2 -1,7 9 5 34 18 W 20 39 0,0
12.06.2019 14:00:00 10,0 0,0 14 8 31 17 W 20 19 -
12.06.2019 13:00:00 10,2 2,1 10 5 23 12 N 20 24 0,0
12.06.2019 12:00:00 7,7 1,3 10 6 21 12 N 20 26 0,0
12.06.2019 11:00:00 7,8 1,7 13 7 27 15 NW 20 55 0,0
12.06.2019 10:00:00 8,0 0,6 5 3 16 9 E 20 60 0,0
12.06.2019 09:00:00 6,0 -0,5 9 5 25 13 WNW 20 60 0,0
12.06.2019 08:00:00 6,2 -1,2 8 4 23 13 SSW 20 28 -
12.06.2019 07:00:00 2,1 -1,2 11 6 20 11 SSW 20 0 0,0
12.06.2019 06:00:00 1,5 -1,4 8 4 16 9 S 20 0 0,0
12.06.2019 05:00:00 2,5 -1,2 7 4 19 10 ESE 20 0 0,0
12.06.2019 04:00:00 2,6 -1,7 11 6 18 10 S 20 0 0,0
12.06.2019 03:00:00 2,8 -1,7 5 3 18 10 SSW 20 0 0,0
12.06.2019 02:00:00 2,6 -2,0 2 1 9 5 W 20 0 -
12.06.2019 01:00:00 2,4 -2,0 3 2 9 5 WSW 20 0 0,0
12.06.2019 00:00:00 2,6 -1,7 4 2 11 6 SSW 20 0 0,0
11.06.2019 23:00:00 2,7 -1,7 6 3 10 6 ESE 20 0 0,0
11.06.2019 22:00:00 3,7 -1,7 3 1 30 16 NE 20 18 0,0
11.06.2019 21:00:00 6,5 -2,2 18 10 39 21 N 20 60 0,0
11.06.2019 20:00:00 6,7 -3,0 23 13 47 25 N 20 53 -

tt = temperature
td = dewpoint
ff = wind speed
fx = gusts
dd = wind direction
vv = visibility
sd = sunshine duration
rr = precipitation

Next stations